Time;durP1;ratioP1;P1;durP2;ratioP2;P2;SDS_P1;SDS_P2;PMS_P1;PMS_P2;Temp;Humidity;BMP_temperature;BMP_pressure;BME280_temperature;BME280_humidity;BME280_pressure;Samples;Min_cycle;Max_cycle;Signal;HPM_P1;HPM_P2
2021/07/04 00:02:00;;;;;;;34.77;14.10;;;16.60;97.30;;;;;;4938393;29;20604;-88
2021/07/04 00:04:33;;;;;;;17.63;13.70;;;16.60;97.30;;;;;;4956839;28;20462;-88
2021/07/04 00:06:59;;;;;;;21.80;12.80;;;16.60;97.30;;;;;;4983551;28;20479;-89
2021/07/04 00:09:25;;;;;;;20.07;13.87;;;16.60;97.30;;;;;;4996502;28;20514;-89
2021/07/04 00:11:51;;;;;;;23.03;13.67;;;16.60;97.30;;;;;;4996220;28;20514;-88
2021/07/04 00:14:17;;;;;;;20.20;13.60;;;16.60;97.30;;;;;;4996578;28;20475;-88
2021/07/04 00:16:44;;;;;;;21.43;14.67;;;16.50;97.30;;;;;;4996528;28;20420;-88
2021/07/04 00:19:10;;;;;;;23.43;13.47;;;16.50;97.30;;;;;;4996445;28;20185;-88
2021/07/04 00:21:36;;;;;;;23.80;15.00;;;16.50;97.30;;;;;;4996702;28;20495;-89
2021/07/04 00:33:46;;;;;;;20.00;14.27;;;16.30;97.30;;;;;;4996317;28;20384;-91
2021/07/04 00:37:06;;;;;;;21.23;14.13;;;16.30;97.30;;;;;;4958220;28;20437;-91
2021/07/04 00:50:55;;;;;;;;;;;;;;;;;;;;;
2021/07/04 00:53:56;;;;;;;20.03;14.63;;;16.10;97.30;;;;;;5013680;28;20916;-92
2021/07/04 01:04:05;;;;;;;23.20;13.67;;;16.00;97.30;;;;;;4915565;29;20600;-91
2021/07/04 01:07:05;;;;;;;20.93;14.10;;;16.00;97.30;;;;;;4915790;29;20416;-91
2021/07/04 01:10:15;;;;;;;19.27;12.73;;;16.00;97.30;;;;;;4901126;29;20903;-91
2021/07/04 01:26:25;;;;;;;20.00;13.90;;;15.90;97.30;;;;;;4858349;29;20921;-91
2021/07/04 01:28:56;;;;;;;16.80;13.07;;;15.90;97.30;;;;;;4842898;29;20431;-91
2021/07/04 01:31:46;;;;;;;20.67;14.10;;;15.90;97.30;;;;;;4842956;29;20436;-91
2021/07/04 01:40:46;;;;;;;23.30;14.00;;;15.80;97.30;;;;;;4878244;29;20504;-91
2021/07/04 01:47:46;;;;;;;21.37;14.77;;;15.70;97.30;;;;;;4802773;29;20485;-91
2021/07/04 01:54:15;;;;;;;;;;;;;;;;;;;;;
2021/07/04 02:14:06;;;;;;;18.53;12.80;;;15.60;97.30;;;;;;4846634;29;20471;-91
2021/07/04 02:17:25;;;;;;;;;;;;;;;;;;;;;
2021/07/04 02:20:26;;;;;;;20.80;14.20;;;15.60;97.30;;;;;;4917280;29;20440;-91
2021/07/04 02:23:46;;;;;;;20.60;12.60;;;15.50;97.30;;;;;;4915638;29;20468;-91
2021/07/04 02:29:46;;;;;;;20.00;12.23;;;15.40;97.30;;;;;;4806780;29;20575;-91
2021/07/04 02:39:16;;;;;;;19.67;12.97;;;15.50;97.30;;;;;;4863352;29;20429;-91
2021/07/04 02:42:36;;;;;;;22.37;13.13;;;15.40;97.30;;;;;;4862755;29;20419;-91
2021/07/04 02:45:26;;;;;;;21.77;12.97;;;15.40;97.30;;;;;;4844038;29;20546;-91
2021/07/04 02:51:26;;;;;;;23.90;13.80;;;15.30;97.30;;;;;;4842325;29;20434;-91
2021/07/04 03:01:46;;;;;;;19.33;13.13;;;15.30;97.30;;;;;;4787151;29;20379;-91
2021/07/04 03:05:06;;;;;;;19.47;13.77;;;15.30;97.30;;;;;;4754415;30;20460;-91
2021/07/04 03:07:56;;;;;;;17.70;12.57;;;15.30;97.30;;;;;;4720000;30;20484;-91
2021/07/04 03:10:56;;;;;;;22.57;15.77;;;15.30;97.30;;;;;;4720207;30;20441;-92
2021/07/04 03:14:06;;;;;;;25.93;14.70;;;15.20;97.30;;;;;;4770085;30;20436;-91
2021/07/04 03:17:06;;;;;;;22.40;13.80;;;15.20;97.30;;;;;;4752688;30;20432;-91
2021/07/04 03:23:25;;;;;;;20.90;14.60;;;15.20;97.30;;;;;;4802457;29;20519;-91
2021/07/04 03:26:05;;;;;;;22.60;15.63;;;15.20;97.30;;;;;;4784953;29;20471;-91
2021/07/04 03:29:16;;;;;;;20.23;13.53;;;15.20;97.30;;;;;;4789337;29;20465;-92
2021/07/04 03:35:16;;;;;;;21.43;14.10;;;15.20;97.30;;;;;;4840594;29;20436;-89
2021/07/04 03:38:27;;;;;;;23.00;14.27;;;15.20;97.30;;;;;;4873337;29;20534;-92
2021/07/04 03:45:44;;;;;;;23.40;13.73;;;15.20;97.30;;;;;;4915619;29;20546;-91
2021/07/04 03:54:54;;;;;;;21.47;14.87;;;15.20;97.30;;;;;;4882890;29;20529;-91
2021/07/04 03:57:28;;;;;;;20.27;12.83;;;15.20;97.30;;;;;;4900787;29;20811;-92
2021/07/04 04:06:54;;;;;;;18.77;13.00;;;15.20;97.30;;;;;;5000467;28;20419;-91
2021/07/04 04:13:16;;;;;;;;;;;;;;;;;;;;;
2021/07/04 04:15:56;;;;;;;24.67;14.33;;;15.30;97.30;;;;;;4954545;29;20431;-91
2021/07/04 04:21:46;;;;;;;25.13;14.23;;;15.30;97.30;;;;;;4953580;29;20450;-91
2021/07/04 04:27:46;;;;;;;21.10;13.97;;;15.40;97.30;;;;;;4915009;29;20413;-91
2021/07/04 04:33:36;;;;;;;24.30;13.13;;;15.40;97.30;;;;;;4935367;28;20405;-91
2021/07/04 04:43:15;;;;;;;23.83;14.40;;;15.50;97.30;;;;;;4973745;28;20449;-91
2021/07/04 04:56:16;;;;;;;23.30;14.00;;;15.70;97.30;;;;;;4824294;29;20457;-91
2021/07/04 04:59:35;;;;;;;20.20;13.53;;;15.80;97.30;;;;;;4813653;29;20425;-90
2021/07/04 05:12:46;;;;;;;;;;;;;;;;;;;;;
2021/07/04 05:25:15;;;;;;;16.40;10.30;;;16.30;97.30;;;;;;4881727;29;20418;-91
2021/07/04 05:27:55;;;;;;;17.07;10.50;;;16.30;97.30;;;;;;4865761;29;20429;-91
2021/07/04 05:33:55;;;;;;;14.50;10.30;;;16.50;97.30;;;;;;4863848;29;20469;-91
2021/07/04 05:36:36;;;;;;;20.00;10.80;;;16.60;97.30;;;;;;4850925;29;20465;-88
2021/07/04 05:42:55;;;;;;;14.60;9.67;;;16.70;97.30;;;;;;4874885;29;20474;-89
2021/07/04 05:45:26;;;;;;;14.00;9.53;;;16.80;97.30;;;;;;4851319;29;20447;-92
2021/07/04 06:31:46;;;;;;;;;;;;;;;;;;;;;
2021/07/04 06:34:35;;;;;;;12.80;8.50;;;18.30;97.30;;;;;;4795553;29;20446;-92
2021/07/04 06:48:17;;;;;;;;;;;;;;;;;;;;;
2021/07/04 06:58:36;;;;;;;10.50;7.70;;;19.30;97.30;;;;;;4769709;30;20450;-92
2021/07/04 07:01:16;;;;;;;10.07;7.10;;;19.40;97.30;;;;;;4744923;30;20492;-90
2021/07/04 07:13:55;;;;;;;8.00;6.50;;;20.10;97.30;;;;;;4739634;23;20457;-85
2021/07/04 07:16:21;;;;;;;10.80;7.10;;;20.20;97.30;;;;;;5024813;28;20441;-85
2021/07/04 07:18:46;;;;;;;9.33;6.20;;;20.20;97.30;;;;;;5011085;28;20188;-84
2021/07/04 07:21:12;;;;;;;11.00;7.33;;;20.30;97.30;;;;;;5007323;28;20294;-82
2021/07/04 07:23:37;;;;;;;8.83;6.37;;;20.40;97.30;;;;;;5003804;28;20200;-82
2021/07/04 07:26:03;;;;;;;7.70;6.37;;;20.50;97.30;;;;;;5006196;28;20188;-83
2021/07/04 07:28:29;;;;;;;8.60;6.70;;;20.50;97.30;;;;;;5018939;23;20237;-82
2021/07/04 07:30:55;;;;;;;12.10;6.90;;;20.70;97.30;;;;;;4996055;28;20490;-82
2021/07/04 07:33:23;;;;;;;11.73;6.50;;;20.80;97.30;;;;;;5016173;28;20187;-81
2021/07/04 07:35:51;;;;;;;7.43;6.27;;;20.80;97.30;;;;;;5011479;28;20231;-81
2021/07/04 07:38:18;;;;;;;9.00;6.33;;;20.90;97.30;;;;;;5013125;28;20817;-82
2021/07/04 07:40:43;;;;;;;9.60;6.20;;;21.00;97.30;;;;;;5016576;28;20433;-82
2021/07/04 07:43:09;;;;;;;7.67;6.07;;;21.20;97.30;;;;;;5021930;28;20467;-82
2021/07/04 07:45:35;;;;;;;8.87;6.03;;;21.20;97.30;;;;;;5022483;28;20622;-82
2021/07/04 07:48:01;;;;;;;8.33;6.47;;;21.40;97.30;;;;;;5022066;28;20193;-83
2021/07/04 07:50:27;;;;;;;11.93;6.67;;;21.50;97.30;;;;;;5020952;28;20417;-83
2021/07/04 07:52:52;;;;;;;11.50;6.13;;;21.60;97.30;;;;;;5021852;28;20181;-82
2021/07/04 07:55:18;;;;;;;6.50;5.90;;;21.70;96.90;;;;;;5021978;28;20549;-83
2021/07/04 07:57:44;;;;;;;7.97;5.70;;;21.80;96.80;;;;;;5020740;28;20184;-83
2021/07/04 08:00:11;;;;;;;7.73;5.93;;;21.90;95.20;;;;;;5012064;28;20207;-82
2021/07/04 08:02:37;;;;;;;8.97;7.00;;;22.00;95.70;;;;;;5009312;28;20212;-82
2021/07/04 08:05:04;;;;;;;9.10;6.07;;;22.10;96.40;;;;;;5001474;28;20747;-81
2021/07/04 08:07:29;;;;;;;9.00;5.90;;;22.20;97.00;;;;;;5018351;28;20192;-80
2021/07/04 08:09:55;;;;;;;7.93;5.40;;;22.30;96.50;;;;;;5025163;28;20424;-80
2021/07/04 08:12:21;;;;;;;9.90;6.50;;;22.40;95.80;;;;;;5027047;28;20201;-80
2021/07/04 08:14:46;;;;;;;8.67;5.90;;;22.40;95.50;;;;;;5021532;28;20219;-81
2021/07/04 08:17:12;;;;;;;8.33;5.90;;;22.50;95.00;;;;;;5019371;28;20181;-80
2021/07/04 08:19:38;;;;;;;6.87;5.37;;;22.60;95.10;;;;;;5026902;28;20554;-80
2021/07/04 08:22:04;;;;;;;6.87;5.60;;;22.60;93.00;;;;;;5026777;28;20212;-80
2021/07/04 08:24:30;;;;;;;7.90;6.17;;;22.70;93.10;;;;;;5027101;28;20428;-80
2021/07/04 08:26:56;;;;;;;6.90;5.13;;;22.80;94.80;;;;;;5027805;28;20420;-80
2021/07/04 08:29:22;;;;;;;7.33;5.53;;;22.90;91.10;;;;;;5027792;28;20467;-82
2021/07/04 08:31:49;;;;;;;9.17;5.33;;;22.90;92.70;;;;;;5028457;28;20386;-80
2021/07/04 08:34:15;;;;;;;8.13;5.43;;;23.00;93.50;;;;;;5028561;28;20184;-80
2021/07/04 08:36:40;;;;;;;7.70;5.33;;;23.00;93.70;;;;;;5018164;28;20433;-82
2021/07/04 08:39:08;;;;;;;8.63;6.17;;;23.10;93.20;;;;;;5001616;28;20220;-82
2021/07/04 08:41:33;;;;;;;8.03;5.53;;;23.10;92.80;;;;;;5008641;28;20197;-82
2021/07/04 08:44:08;;;;;;;6.73;5.70;;;23.20;92.30;;;;;;5012966;28;20472;-80
2021/07/04 08:46:39;;;;;;;6.27;5.00;;;23.30;93.50;;;;;;5019033;28;21061;-80
2021/07/04 08:49:05;;;;;;;11.97;5.97;;;23.30;93.30;;;;;;5023150;28;20487;-81
2021/07/04 08:51:31;;;;;;;6.70;5.23;;;23.40;92.20;;;;;;5022760;28;20862;-80
2021/07/04 08:53:56;;;;;;;6.40;5.50;;;23.50;91.80;;;;;;5024527;28;20193;-81
2021/07/04 08:56:22;;;;;;;5.20;4.40;;;23.50;90.10;;;;;;5030156;28;20188;-81
2021/07/04 08:58:48;;;;;;;6.43;5.00;;;23.50;89.60;;;;;;5023752;28;20452;-81
2021/07/04 09:01:16;;;;;;;6.90;5.90;;;23.60;89.10;;;;;;5009569;28;20209;-82
2021/07/04 09:03:48;;;;;;;9.10;5.77;;;23.70;91.80;;;;;;5009211;28;20196;-82
2021/07/04 09:06:14;;;;;;;8.17;5.30;;;23.80;91.70;;;;;;5009355;28;20429;-82
2021/07/04 09:08:41;;;;;;;5.53;4.67;;;23.90;90.10;;;;;;5003291;28;20443;-81
2021/07/04 09:11:16;;;;;;;7.23;4.77;;;24.00;85.00;;;;;;5021793;28;20823;-83
2021/07/04 09:13:45;;;;;;;8.33;5.30;;;24.10;87.00;;;;;;5015348;28;20432;-82
2021/07/04 09:16:16;;;;;;;8.40;5.47;;;24.20;89.30;;;;;;5022462;28;20477;-83
2021/07/04 09:18:42;;;;;;;7.10;5.07;;;24.30;88.20;;;;;;5022607;28;20487;-82
2021/07/04 09:21:23;;;;;;;7.10;4.40;;;24.40;88.50;;;;;;5019636;28;20479;-83
2021/07/04 09:23:50;;;;;;;4.47;4.17;;;24.50;87.80;;;;;;5018161;28;20466;-83
2021/07/04 09:26:42;;;;;;;8.13;4.90;;;24.50;87.40;;;;;;5020008;28;20416;-83
2021/07/04 09:29:09;;;;;;;6.03;5.10;;;24.60;87.50;;;;;;5028662;28;20447;-83
2021/07/04 09:31:36;;;;;;;6.67;5.10;;;24.70;87.00;;;;;;5021180;28;20445;-83
2021/07/04 09:34:09;;;;;;;6.57;4.67;;;24.70;86.20;;;;;;5028250;28;20437;-82
2021/07/04 09:36:38;;;;;;;7.60;5.10;;;24.80;87.00;;;;;;5035682;28;20485;-83
2021/07/04 09:39:21;;;;;;;6.77;6.43;;;24.80;84.90;;;;;;5022182;28;20415;-83
2021/07/04 09:42:06;;;;;;;6.00;4.80;;;24.90;86.20;;;;;;5023975;28;20469;-83
2021/07/04 09:44:32;;;;;;;6.40;5.00;;;25.00;85.10;;;;;;5025018;28;20470;-82
2021/07/04 09:47:27;;;;;;;6.20;4.90;;;25.10;85.40;;;;;;5022757;28;20415;-83
2021/07/04 09:50:04;;;;;;;6.10;5.03;;;25.20;85.80;;;;;;5004782;28;20247;-83
2021/07/04 09:52:30;;;;;;;5.80;4.97;;;25.20;85.40;;;;;;5022528;28;20458;-83
2021/07/04 09:55:02;;;;;;;5.90;4.83;;;25.30;85.10;;;;;;5020890;28;20415;-83
2021/07/04 09:57:48;;;;;;;7.37;5.60;;;25.30;85.10;;;;;;5002872;28;20185;-83
2021/07/04 10:00:16;;;;;;;7.13;5.90;;;25.40;85.10;;;;;;5002738;28;20429;-83
2021/07/04 10:02:42;;;;;;;6.70;5.80;;;25.50;81.30;;;;;;5001747;28;20466;-83
2021/07/04 10:05:15;;;;;;;8.50;5.47;;;25.50;82.50;;;;;;5000404;28;20413;-84
2021/07/04 10:07:41;;;;;;;6.20;5.00;;;25.50;81.80;;;;;;5020264;28;20789;-82
2021/07/04 10:10:08;;;;;;;7.80;5.20;;;25.60;80.20;;;;;;5024164;28;20511;-83
2021/07/04 10:12:34;;;;;;;7.33;5.70;;;25.70;84.90;;;;;;5022501;28;20942;-83
2021/07/04 10:14:59;;;;;;;8.13;5.03;;;25.80;85.70;;;;;;5021280;28;20476;-83
2021/07/04 10:17:29;;;;;;;9.53;5.60;;;25.90;82.30;;;;;;5021131;28;20242;-83
2021/07/04 10:19:55;;;;;;;6.40;5.40;;;26.00;84.50;;;;;;5021599;28;20528;-83
2021/07/04 10:22:22;;;;;;;8.27;5.40;;;26.10;84.10;;;;;;5021071;28;20996;-83
2021/07/04 10:24:50;;;;;;;6.93;5.37;;;26.10;84.10;;;;;;5020548;28;20407;-83
2021/07/04 10:27:16;;;;;;;7.63;6.10;;;26.00;81.60;;;;;;5017371;28;20455;-83
2021/07/04 10:29:43;;;;;;;8.10;5.60;;;25.90;83.80;;;;;;5011086;28;20474;-83
2021/07/04 10:32:12;;;;;;;10.00;5.83;;;25.80;85.00;;;;;;4999546;28;20474;-84
2021/07/04 10:34:43;;;;;;;8.17;6.40;;;25.70;84.90;;;;;;4998663;28;20770;-84
2021/07/04 10:37:10;;;;;;;14.10;7.00;;;25.70;85.10;;;;;;5000471;28;20869;-83
2021/07/04 10:39:35;;;;;;;8.97;6.97;;;25.70;83.20;;;;;;5004724;28;20420;-84
2021/07/04 10:42:10;;;;;;;13.13;6.10;;;25.70;84.80;;;;;;4999287;28;20428;-83
2021/07/04 10:44:42;;;;;;;9.60;5.80;;;25.80;84.60;;;;;;5002433;28;20184;-83
2021/07/04 10:47:33;;;;;;;8.30;5.67;;;25.80;81.60;;;;;;5017121;28;20478;-83
2021/07/04 10:50:12;;;;;;;6.90;5.83;;;25.80;82.40;;;;;;5019983;28;20408;-82
2021/07/04 10:53:16;;;;;;;8.10;6.30;;;25.80;82.80;;;;;;5009649;28;20427;-82
2021/07/04 10:55:45;;;;;;;7.40;6.10;;;25.80;83.80;;;;;;5005706;28;20412;-84
2021/07/04 10:58:11;;;;;;;7.43;6.03;;;25.80;83.90;;;;;;4998160;28;20431;-84
2021/07/04 11:00:46;;;;;;;8.43;6.00;;;25.90;84.50;;;;;;4999019;28;20217;-84
2021/07/04 11:03:30;;;;;;;6.73;5.87;;;25.90;85.90;;;;;;5002205;28;20641;-84
2021/07/04 11:05:56;;;;;;;8.23;5.97;;;25.90;85.00;;;;;;5005604;28;20768;-84
2021/07/04 11:08:27;;;;;;;7.77;6.20;;;26.00;83.00;;;;;;5021071;28;20427;-85
2021/07/04 11:11:32;;;;;;;15.67;6.63;;;26.20;85.70;;;;;;5039363;28;20602;-84
2021/07/04 11:14:08;;;;;;;7.50;5.13;;;26.30;83.80;;;;;;5025261;28;20485;-83
2021/07/04 11:16:34;;;;;;;8.00;5.73;;;26.40;79.10;;;;;;5007535;28;20504;-84
2021/07/04 11:19:14;;;;;;;6.80;5.47;;;26.40;79.30;;;;;;5001854;28;20459;-84
2021/07/04 11:21:49;;;;;;;9.97;6.03;;;26.40;79.90;;;;;;4996679;28;20200;-84
2021/07/04 11:24:24;;;;;;;11.80;6.23;;;26.40;78.60;;;;;;4998024;28;20843;-84
2021/07/04 11:27:28;;;;;;;7.30;5.77;;;26.40;79.70;;;;;;5000634;28;20931;-84
2021/07/04 11:30:18;;;;;;;6.73;5.67;;;26.50;83.40;;;;;;4959820;28;20490;-84
2021/07/04 11:43:50;;;;;;;7.43;5.90;;;27.20;80.70;;;;;;5007166;28;20485;-82
2021/07/04 11:46:18;;;;;;;7.80;5.77;;;27.30;79.90;;;;;;5018193;28;20438;-82
2021/07/04 11:49:03;;;;;;;8.73;5.40;;;27.40;81.80;;;;;;5019119;28;20448;-83
2021/07/04 11:51:32;;;;;;;7.23;5.77;;;27.50;79.50;;;;;;5018792;28;20462;-84
2021/07/04 11:54:13;;;;;;;7.20;5.53;;;27.60;82.80;;;;;;5018713;28;20404;-83
2021/07/04 11:56:40;;;;;;;8.70;6.20;;;27.60;80.70;;;;;;5018595;28;20408;-82
2021/07/04 11:59:14;;;;;;;7.73;6.07;;;27.70;82.70;;;;;;5017717;28;20439;-83
2021/07/04 12:01:42;;;;;;;8.10;5.60;;;27.80;84.70;;;;;;5018984;28;20439;-83
2021/07/04 12:04:08;;;;;;;5.97;5.33;;;27.90;83.00;;;;;;5018370;28;20483;-83
2021/07/04 12:06:34;;;;;;;9.07;6.10;;;27.90;81.60;;;;;;5018928;28;20433;-83
2021/07/04 12:09:04;;;;;;;7.50;5.57;;;27.90;78.50;;;;;;5018303;28;20240;-83
2021/07/04 12:11:43;;;;;;;6.90;5.90;;;27.80;77.60;;;;;;5018695;28;20201;-83
2021/07/04 12:14:22;;;;;;;9.23;5.90;;;27.90;80.10;;;;;;5018654;28;20444;-83
2021/07/04 12:16:48;;;;;;;6.83;5.17;;;27.80;79.60;;;;;;5018309;28;20434;-83
2021/07/04 12:19:29;;;;;;;6.20;5.47;;;27.60;77.90;;;;;;5017461;28;20444;-84
2021/07/04 12:21:56;;;;;;;8.30;6.03;;;27.50;77.30;;;;;;5017119;28;20200;-83
2021/07/04 12:24:31;;;;;;;7.43;6.00;;;27.40;77.50;;;;;;5017168;28;20522;-83
2021/07/04 12:26:56;;;;;;;7.13;5.60;;;27.30;78.10;;;;;;5016792;28;20439;-84
2021/07/04 12:29:22;;;;;;;8.23;6.03;;;27.10;77.40;;;;;;5016103;28;20734;-83
2021/07/04 12:32:01;;;;;;;6.77;5.57;;;27.00;78.40;;;;;;5016498;28;20181;-83
2021/07/04 12:34:29;;;;;;;6.63;5.83;;;26.90;78.90;;;;;;5016632;28;20183;-83
2021/07/04 12:36:55;;;;;;;8.20;5.60;;;26.80;81.00;;;;;;5017219;28;20404;-83
2021/07/04 12:39:29;;;;;;;18.30;6.10;;;26.70;80.90;;;;;;5017729;28;20434;-83
2021/07/04 12:41:55;;;;;;;7.93;5.43;;;26.50;81.20;;;;;;5033725;28;20178;-83
2021/07/04 12:44:21;;;;;;;7.30;6.00;;;26.50;82.20;;;;;;5016278;28;20491;-83
2021/07/04 12:46:48;;;;;;;9.03;6.60;;;26.60;84.90;;;;;;5015529;28;20505;-83
2021/07/04 12:49:14;;;;;;;6.70;5.87;;;26.80;81.50;;;;;;5017278;28;20468;-83
2021/07/04 12:51:43;;;;;;;8.10;5.90;;;26.90;79.70;;;;;;5015964;28;20447;-83
2021/07/04 12:54:20;;;;;;;7.87;6.03;;;27.10;83.20;;;;;;5016730;28;20435;-83
2021/07/04 12:56:49;;;;;;;6.93;6.07;;;27.40;80.10;;;;;;5016941;28;20426;-83
2021/07/04 12:59:28;;;;;;;7.93;6.10;;;27.60;80.00;;;;;;5018261;28;20428;-83
2021/07/04 13:01:55;;;;;;;7.03;5.80;;;27.80;78.30;;;;;;5016671;28;20612;-83
2021/07/04 13:04:21;;;;;;;9.20;5.60;;;27.80;76.70;;;;;;5017247;28;20458;-83
2021/07/04 13:09:20;;;;;;;7.67;5.80;;;27.90;76.20;;;;;;5053655;28;20191;-83
2021/07/04 13:12:10;;;;;;;5.73;4.97;;;28.00;76.20;;;;;;5036233;28;21138;-82
2021/07/04 13:14:38;;;;;;;7.50;6.03;;;28.10;76.40;;;;;;5036945;28;20407;-83
2021/07/04 13:17:06;;;;;;;7.00;5.17;;;28.10;74.00;;;;;;5053489;28;20423;-83
2021/07/04 13:19:32;;;;;;;6.77;5.20;;;28.10;73.40;;;;;;5035804;28;20415;-82
2021/07/04 13:21:59;;;;;;;7.60;5.80;;;28.10;74.30;;;;;;5036214;28;20419;-84
2021/07/04 13:24:31;;;;;;;6.37;5.10;;;28.20;74.30;;;;;;5034563;28;20470;-83
2021/07/04 13:27:36;;;;;;;5.87;5.13;;;28.30;72.70;;;;;;5052243;28;20422;-83
2021/07/04 13:30:21;;;;;;;7.77;5.70;;;28.40;77.80;;;;;;4989312;23;20497;-85
2021/07/04 13:33:03;;;;;;;5.33;4.70;;;28.50;74.10;;;;;;4954800;28;20425;-85
2021/07/04 13:35:33;;;;;;;6.83;5.00;;;28.60;73.80;;;;;;4955596;28;20426;-84
2021/07/04 13:38:12;;;;;;;7.23;5.50;;;28.70;75.00;;;;;;4972574;28;20420;-85
2021/07/04 13:40:40;;;;;;;6.80;5.17;;;28.90;74.40;;;;;;4971284;28;20529;-85
2021/07/04 13:43:06;;;;;;;5.37;5.07;;;28.90;73.20;;;;;;4954763;28;20457;-85
2021/07/04 13:45:39;;;;;;;8.70;5.30;;;28.90;72.60;;;;;;4958784;28;20769;-85
2021/07/04 13:48:05;;;;;;;5.07;4.57;;;28.80;71.90;;;;;;4959377;28;20418;-85
2021/07/04 13:50:31;;;;;;;6.33;5.23;;;28.70;73.80;;;;;;4974672;28;20768;-85
2021/07/04 13:52:58;;;;;;;8.10;5.77;;;28.80;79.80;;;;;;4974760;28;20182;-85
2021/07/04 13:55:24;;;;;;;6.87;4.93;;;28.80;79.20;;;;;;4976521;28;20418;-85
2021/07/04 13:57:50;;;;;;;6.63;6.03;;;29.00;78.20;;;;;;4976316;28;20932;-85
2021/07/04 14:00:17;;;;;;;7.40;5.17;;;29.20;82.40;;;;;;4958455;28;20509;-85
2021/07/04 14:02:43;;;;;;;5.27;4.80;;;29.50;82.00;;;;;;4958159;28;20450;-85
2021/07/04 14:05:09;;;;;;;6.20;5.33;;;29.70;76.60;;;;;;4958664;28;20489;-85
2021/07/04 14:07:34;;;;;;;5.50;4.67;;;29.80;73.80;;;;;;4959594;28;20502;-86
2021/07/04 14:10:00;;;;;;;5.03;4.60;;;29.90;72.00;;;;;;4974630;28;20219;-85
2021/07/04 14:12:25;;;;;;;8.33;5.10;;;30.00;73.10;;;;;;4958249;28;20202;-86
2021/07/04 14:14:51;;;;;;;6.10;4.93;;;30.00;71.90;;;;;;4958811;28;20174;-86
2021/07/04 14:17:17;;;;;;;6.60;4.90;;;30.20;73.10;;;;;;4975370;28;20206;-85
2021/07/04 14:19:45;;;;;;;5.37;4.90;;;30.30;72.20;;;;;;4958236;28;20202;-86
2021/07/04 14:22:11;;;;;;;6.00;4.80;;;30.20;72.00;;;;;;4957562;28;20194;-86
2021/07/04 14:24:37;;;;;;;6.27;4.90;;;30.10;74.20;;;;;;4958743;28;20450;-85
2021/07/04 14:27:05;;;;;;;6.40;4.97;;;29.90;74.60;;;;;;4958741;28;20286;-86
2021/07/04 14:29:31;;;;;;;5.93;4.57;;;29.80;73.20;;;;;;4958610;28;20493;-85
2021/07/04 14:31:57;;;;;;;6.50;5.10;;;29.70;72.20;;;;;;4957698;28;20948;-85
2021/07/04 14:34:22;;;;;;;6.23;4.90;;;29.60;71.70;;;;;;4958274;28;20650;-85
2021/07/04 14:36:48;;;;;;;4.97;4.50;;;29.60;75.10;;;;;;4958827;28;20174;-85
2021/07/04 14:39:14;;;;;;;5.30;4.77;;;29.60;71.80;;;;;;4958301;28;20551;-85
2021/07/04 14:41:40;;;;;;;6.53;4.23;;;29.80;72.50;;;;;;4957743;28;20218;-86
2021/07/04 14:44:07;;;;;;;5.70;5.10;;;30.00;75.20;;;;;;4957908;28;20816;-85
2021/07/04 14:46:34;;;;;;;5.00;4.50;;;30.00;73.40;;;;;;4958773;28;20175;-85
2021/07/04 14:48:59;;;;;;;7.10;4.60;;;30.00;71.10;;;;;;4957839;28;20416;-85
2021/07/04 14:51:26;;;;;;;5.97;4.90;;;29.90;72.40;;;;;;4957325;28;20525;-86
2021/07/04 14:53:52;;;;;;;5.40;4.53;;;29.80;72.80;;;;;;4957976;28;20181;-85
2021/07/04 14:56:25;;;;;;;5.00;4.70;;;29.90;77.60;;;;;;4974936;28;20925;-85
2021/07/04 14:58:56;;;;;;;5.97;5.10;;;30.00;74.30;;;;;;4972053;28;20444;-85
2021/07/04 15:01:26;;;;;;;6.93;5.03;;;30.20;75.20;;;;;;4956812;28;20449;-86
2021/07/04 15:03:54;;;;;;;6.93;5.27;;;30.40;77.00;;;;;;4957884;28;20537;-86
2021/07/04 15:06:25;;;;;;;5.20;4.70;;;30.60;77.80;;;;;;4965826;28;20417;-86
2021/07/04 15:08:55;;;;;;;7.30;5.20;;;30.70;76.30;;;;;;4977200;28;20500;-85
2021/07/04 15:11:24;;;;;;;5.43;4.30;;;30.80;71.60;;;;;;4976424;28;20436;-86
2021/07/04 15:13:53;;;;;;;5.13;4.30;;;30.80;72.90;;;;;;4977114;28;20626;-85
2021/07/04 15:16:18;;;;;;;7.10;4.70;;;31.00;71.10;;;;;;4977487;28;20507;-85
2021/07/04 15:18:44;;;;;;;5.50;4.63;;;31.10;73.00;;;;;;4976991;28;20940;-85
2021/07/04 15:21:10;;;;;;;6.57;4.93;;;31.20;73.30;;;;;;4976433;28;20212;-85
2021/07/04 15:23:35;;;;;;;4.97;4.67;;;31.30;72.20;;;;;;4994772;28;20915;-85
2021/07/04 15:26:02;;;;;;;5.40;4.93;;;31.40;75.10;;;;;;4977344;28;20201;-85
2021/07/04 15:28:32;;;;;;;5.70;4.93;;;31.50;74.20;;;;;;4975832;28;20545;-86
2021/07/04 15:30:58;;;;;;;8.03;4.83;;;31.60;75.80;;;;;;4976072;28;20982;-85
2021/07/04 15:33:26;;;;;;;6.13;4.50;;;31.60;74.50;;;;;;4977283;28;20445;-85
2021/07/04 15:35:52;;;;;;;7.50;5.10;;;31.70;73.40;;;;;;4976722;28;20960;-86
2021/07/04 15:38:18;;;;;;;7.23;4.47;;;31.80;71.60;;;;;;4975931;28;20410;-86
2021/07/04 15:40:43;;;;;;;4.63;4.23;;;31.80;72.00;;;;;;4977621;28;20470;-85
2021/07/04 15:43:09;;;;;;;8.00;4.87;;;31.90;71.40;;;;;;4978282;28;20296;-86
2021/07/04 15:45:35;;;;;;;6.17;4.60;;;31.90;73.10;;;;;;4995286;28;20178;-85
2021/07/04 15:48:00;;;;;;;5.30;4.60;;;31.90;74.20;;;;;;4977368;28;20275;-85
2021/07/04 15:50:26;;;;;;;5.73;5.30;;;31.90;75.00;;;;;;4976196;28;20181;-86
2021/07/04 15:52:52;;;;;;;5.13;4.50;;;31.90;74.50;;;;;;4976643;28;20182;-86
2021/07/04 15:55:18;;;;;;;4.77;4.17;;;31.70;74.60;;;;;;4976211;28;20432;-86
2021/07/04 15:57:44;;;;;;;5.13;4.63;;;31.70;74.90;;;;;;4975633;28;20828;-86
2021/07/04 16:00:13;;;;;;;8.27;5.10;;;31.60;74.50;;;;;;4975943;28;20182;-85
2021/07/04 16:02:38;;;;;;;6.70;4.77;;;31.20;72.50;;;;;;4994019;28;20206;-85
2021/07/04 16:05:05;;;;;;;13.93;5.47;;;30.70;74.00;;;;;;4971487;28;20485;-86
2021/07/04 16:07:31;;;;;;;6.53;5.47;;;30.30;75.60;;;;;;4973302;28;20236;-85
2021/07/04 16:09:56;;;;;;;8.13;5.67;;;30.00;75.50;;;;;;4975751;28;20921;-85
2021/07/04 16:12:22;;;;;;;7.03;5.50;;;30.00;80.00;;;;;;4976749;28;20202;-85
2021/07/04 16:14:53;;;;;;;6.87;4.60;;;30.00;79.00;;;;;;4963265;28;20182;-85
2021/07/04 16:17:18;;;;;;;6.90;5.40;;;30.00;81.60;;;;;;4963155;28;20210;-85
2021/07/04 16:19:44;;;;;;;6.70;5.27;;;30.00;78.80;;;;;;4964640;28;20448;-85
2021/07/04 16:22:09;;;;;;;7.90;5.80;;;30.00;79.40;;;;;;4970599;28;20194;-85
2021/07/04 16:24:36;;;;;;;7.20;5.10;;;29.90;80.30;;;;;;4961557;28;20178;-85
2021/07/04 16:27:02;;;;;;;8.13;5.60;;;29.90;79.20;;;;;;4961678;28;20174;-85
2021/07/04 16:29:28;;;;;;;12.00;6.37;;;29.80;80.50;;;;;;4968042;28;20449;-85
2021/07/04 16:32:01;;;;;;;7.43;5.60;;;29.70;79.40;;;;;;4963703;28;20206;-86
2021/07/04 16:34:28;;;;;;;7.93;5.73;;;29.50;79.40;;;;;;4977132;28;20188;-86
2021/07/04 16:36:53;;;;;;;7.60;6.07;;;29.40;81.20;;;;;;4964776;28;20495;-86
2021/07/04 16:39:20;;;;;;;8.73;5.70;;;29.50;81.40;;;;;;4964628;28;20197;-86
2021/07/04 16:41:45;;;;;;;7.37;5.73;;;29.50;80.10;;;;;;4961706;28;20226;-86
2021/07/04 16:44:11;;;;;;;7.70;6.30;;;29.30;78.90;;;;;;4964736;28;20934;-86
2021/07/04 16:46:38;;;;;;;7.87;5.57;;;29.30;80.40;;;;;;4964691;28;20836;-86
2021/07/04 16:49:04;;;;;;;8.90;6.33;;;29.20;80.40;;;;;;4963982;28;20163;-86
2021/07/04 16:51:30;;;;;;;7.60;5.80;;;29.20;80.20;;;;;;4965025;28;20790;-85
2021/07/04 16:53:56;;;;;;;8.57;6.30;;;29.00;78.80;;;;;;4962638;28;20427;-85
2021/07/04 16:56:21;;;;;;;8.00;5.93;;;28.80;79.40;;;;;;4964999;28;20413;-85
2021/07/04 16:58:47;;;;;;;6.00;5.00;;;28.60;79.90;;;;;;4975219;28;20206;-85
2021/07/04 17:01:13;;;;;;;7.90;5.17;;;28.50;81.60;;;;;;4964758;28;20201;-84
2021/07/04 17:03:39;;;;;;;7.13;5.43;;;28.20;80.10;;;;;;4965109;28;20462;-85
2021/07/04 17:06:05;;;;;;;7.17;5.10;;;27.80;79.70;;;;;;4968022;28;20423;-85
2021/07/04 17:08:30;;;;;;;6.67;5.27;;;27.60;80.40;;;;;;4982319;28;20629;-85
2021/07/04 17:10:59;;;;;;;9.00;5.77;;;27.30;80.70;;;;;;4965979;28;20241;-85
2021/07/04 17:13:25;;;;;;;7.17;5.60;;;27.10;81.50;;;;;;4960922;28;20185;-84
2021/07/04 17:15:51;;;;;;;10.10;5.93;;;27.00;83.10;;;;;;4963998;28;20511;-85
2021/07/04 17:18:17;;;;;;;6.87;5.23;;;26.80;81.70;;;;;;4965352;28;20422;-85
2021/07/04 17:20:43;;;;;;;6.97;5.50;;;26.60;82.40;;;;;;4966947;28;20433;-85
2021/07/04 17:23:08;;;;;;;7.07;5.57;;;26.50;83.00;;;;;;4967704;28;20240;-85
2021/07/04 17:25:34;;;;;;;8.93;5.97;;;26.40;83.70;;;;;;4968063;28;20265;-85
2021/07/04 17:28:00;;;;;;;7.40;6.10;;;26.30;83.80;;;;;;4970015;28;20177;-84
2021/07/04 17:30:29;;;;;;;10.13;6.27;;;26.30;83.80;;;;;;4968113;28;20491;-85
2021/07/04 17:32:56;;;;;;;7.33;5.83;;;26.30;83.70;;;;;;4970495;28;20201;-85
2021/07/04 17:35:24;;;;;;;8.57;5.70;;;26.20;83.50;;;;;;4966805;28;20413;-84
2021/07/04 17:37:53;;;;;;;7.70;5.30;;;26.20;83.50;;;;;;4968171;28;20420;-85
2021/07/04 17:40:20;;;;;;;6.87;5.20;;;26.10;83.90;;;;;;4968905;28;20591;-84
2021/07/04 17:42:46;;;;;;;7.90;6.00;;;26.10;84.10;;;;;;4958228;28;20879;-84